Terminal Aerodrome Forecast
Issued by NWS Mt. Holly, NJ

Home | Current Version | Previous Version | Text Only | Print | Product List | Glossary On
Versions: 1 2 3 4 5 6 7 8 9 10 11 12 13 14 15 16 17 18 19 20
269
FTUS41 KPHI 250559 AAB
TAFPHL
TAF AMD
KPHL 250559Z 2506/2612 06012KT P6SM OVC010
     FM250800 07012KT P6SM VCSH OVC008
     FM251600 07015G23KT 3SM -RA OVC008
     FM251800 07015G23KT 1SM +RA OVC008
     FM252200 07015G23KT 3SM RA OVC008
     FM260000 07014KT 5SM -RA OVC005
     FM260400 06011KT 3SM BR OVC008=

USA.gov is the U.S. government's official web portal to all federal, state and local government web resources and services.